createdAt,value
2023-06-30T00:00:57.730Z,100.00
2023-06-30T00:03:24.799Z,100.00
2023-06-30T00:05:51.585Z,100.00
2023-06-30T00:08:18.170Z,100.00
2023-06-30T00:10:44.728Z,100.00
2023-06-30T00:13:11.322Z,100.00
2023-06-30T00:15:37.951Z,100.00
2023-06-30T00:18:04.977Z,100.00
2023-06-30T00:20:31.582Z,100.00
2023-06-30T00:22:58.139Z,100.00
2023-06-30T00:25:24.722Z,100.00
2023-06-30T00:27:51.270Z,100.00
2023-06-30T00:30:17.943Z,100.00
2023-06-30T00:32:44.494Z,100.00
2023-06-30T00:35:11.075Z,100.00
2023-06-30T00:37:37.800Z,100.00
2023-06-30T00:40:05.189Z,100.00
2023-06-30T00:42:31.770Z,100.00
2023-06-30T00:45:01.079Z,100.00
2023-06-30T00:47:27.839Z,100.00
2023-06-30T00:49:54.630Z,100.00
2023-06-30T00:52:21.257Z,100.00
2023-06-30T00:54:48.227Z,100.00
2023-06-30T00:57:15.485Z,100.00
2023-06-30T00:59:42.108Z,100.00
2023-06-30T01:02:22.099Z,100.00
2023-06-30T01:05:10.879Z,100.00
2023-06-30T01:07:44.175Z,100.00
2023-06-30T01:10:21.693Z,100.00
2023-06-30T01:12:49.161Z,100.00
2023-06-30T01:15:16.352Z,100.00
2023-06-30T01:17:48.457Z,100.00
2023-06-30T01:20:18.677Z,100.00
2023-06-30T01:22:51.643Z,100.00
2023-06-30T01:25:23.523Z,100.00
2023-06-30T01:27:50.493Z,100.00
2023-06-30T01:30:18.886Z,100.00
2023-06-30T01:32:46.910Z,100.00
2023-06-30T01:35:14.152Z,100.00
2023-06-30T01:37:40.840Z,100.00
2023-06-30T01:40:08.114Z,100.00
2023-06-30T01:42:36.818Z,100.00
2023-06-30T01:45:04.377Z,100.00
2023-06-30T01:47:31.335Z,100.00
2023-06-30T01:49:59.076Z,100.00
2023-06-30T01:52:25.894Z,100.00
2023-06-30T01:55:12.501Z,100.00
2023-06-30T01:57:59.063Z,100.00
2023-06-30T02:00:45.650Z,100.00
2023-06-30T02:03:32.213Z,100.00
2023-06-30T02:06:19.081Z,100.00
2023-06-30T02:09:03.904Z,100.00
2023-06-30T02:11:30.660Z,100.00
2023-06-30T02:13:57.250Z,100.00
2023-06-30T02:16:23.950Z,100.00
2023-06-30T02:18:52.667Z,100.00
2023-06-30T02:21:19.656Z,100.00
2023-06-30T02:23:48.140Z,100.00
2023-06-30T02:26:15.333Z,100.00
2023-06-30T02:28:42.097Z,100.00
2023-06-30T02:31:08.807Z,100.00
2023-06-30T02:33:35.966Z,100.00
2023-06-30T02:36:06.002Z,100.00
2023-06-30T02:38:32.772Z,100.00
2023-06-30T02:40:59.308Z,100.00
2023-06-30T02:43:26.003Z,100.00
2023-06-30T02:45:52.678Z,100.00
2023-06-30T02:48:19.414Z,100.00
2023-06-30T02:50:46.068Z,100.00
2023-06-30T02:53:14.771Z,100.00
2023-06-30T02:55:41.515Z,100.00
2023-06-30T02:58:12.308Z,100.00
2023-06-30T03:00:40.824Z,100.00
2023-06-30T03:03:07.621Z,100.00
2023-06-30T03:05:38.305Z,100.00
2023-06-30T03:08:06.559Z,100.00
2023-06-30T03:10:33.724Z,100.00
2023-06-30T03:13:00.399Z,100.00
2023-06-30T03:15:26.905Z,100.00
2023-06-30T03:17:56.397Z,100.00
2023-06-30T03:20:24.572Z,100.00
2023-06-30T03:22:53.071Z,100.00
2023-06-30T03:25:20.446Z,100.00
2023-06-30T03:27:47.034Z,100.00
2023-06-30T03:30:14.037Z,100.00
2023-06-30T03:32:44.565Z,100.00
2023-06-30T03:35:11.135Z,100.00
2023-06-30T03:37:37.717Z,100.00
2023-06-30T03:40:07.303Z,100.00
2023-06-30T03:42:33.975Z,100.00
2023-06-30T03:45:01.784Z,100.00
2023-06-30T03:47:30.706Z,100.00
2023-06-30T03:49:57.394Z,100.00
2023-06-30T03:52:23.875Z,100.00
2023-06-30T03:54:51.805Z,100.00
2023-06-30T03:57:18.486Z,100.00
2023-06-30T03:59:45.101Z,100.00
2023-06-30T04:02:11.794Z,100.00
2023-06-30T04:04:38.791Z,100.00
2023-06-30T04:07:06.088Z,100.00
2023-06-30T04:09:32.859Z,100.00
2023-06-30T04:11:59.397Z,100.00
2023-06-30T04:14:26.205Z,100.00
2023-06-30T04:16:52.844Z,100.00
2023-06-30T04:19:19.480Z,100.00
2023-06-30T04:21:45.934Z,100.00
2023-06-30T04:24:12.571Z,100.00
2023-06-30T04:26:39.272Z,100.00
2023-06-30T04:29:05.771Z,100.00
2023-06-30T04:31:32.321Z,100.00
2023-06-30T04:33:58.994Z,100.00
2023-06-30T04:36:25.567Z,100.00
2023-06-30T04:38:52.320Z,100.00
2023-06-30T04:41:19.186Z,100.00
2023-06-30T04:43:45.937Z,100.00
2023-06-30T04:46:12.522Z,100.00
2023-06-30T04:48:39.056Z,100.00
2023-06-30T04:51:05.819Z,100.00
2023-06-30T04:53:33.032Z,100.00
2023-06-30T04:55:59.744Z,100.00
2023-06-30T04:58:26.217Z,100.00
2023-06-30T05:00:52.865Z,100.00
2023-06-30T05:03:20.555Z,100.00
2023-06-30T05:05:47.607Z,100.00
2023-06-30T05:08:15.608Z,100.00
2023-06-30T05:10:42.419Z,100.00
2023-06-30T05:13:09.185Z,100.00
2023-06-30T05:15:35.799Z,100.00
2023-06-30T05:18:02.581Z,100.00
2023-06-30T05:20:29.093Z,100.00
2023-06-30T05:22:55.568Z,100.00
2023-06-30T05:25:22.159Z,100.00
2023-06-30T05:27:48.743Z,100.00
2023-06-30T05:30:15.316Z,100.00
2023-06-30T05:32:41.970Z,100.00
2023-06-30T05:35:08.650Z,100.00
2023-06-30T05:37:35.205Z,100.00
2023-06-30T05:40:01.854Z,100.00
2023-06-30T05:42:28.305Z,100.00
2023-06-30T05:44:54.767Z,100.00
2023-06-30T05:47:21.289Z,100.00
2023-06-30T05:49:47.866Z,100.00
2023-06-30T05:52:14.411Z,100.00
2023-06-30T05:54:42.420Z,100.00
2023-06-30T05:57:08.972Z,100.00
2023-06-30T05:59:35.425Z,100.00
2023-06-30T06:02:02.082Z,100.00
2023-06-30T06:04:28.916Z,100.00
2023-06-30T06:06:55.717Z,100.00
2023-06-30T06:09:22.237Z,100.00
2023-06-30T06:11:48.731Z,100.00
2023-06-30T06:14:16.617Z,100.00
2023-06-30T06:16:45.970Z,100.00
2023-06-30T06:19:13.185Z,100.00
2023-06-30T06:21:39.657Z,100.00
2023-06-30T06:24:06.569Z,100.00
2023-06-30T06:26:33.126Z,100.00
2023-06-30T06:28:59.744Z,100.00
2023-06-30T06:31:28.298Z,100.00
2023-06-30T06:33:56.163Z,100.00
2023-06-30T06:36:22.947Z,100.00
2023-06-30T06:38:49.484Z,100.00
2023-06-30T06:41:16.081Z,100.00
2023-06-30T06:43:43.517Z,100.00
2023-06-30T06:46:10.098Z,100.00
2023-06-30T06:48:36.690Z,100.00
2023-06-30T06:51:04.477Z,100.00
2023-06-30T06:53:36.397Z,100.00
2023-06-30T06:56:04.412Z,100.00
2023-06-30T06:58:33.583Z,100.00
2023-06-30T07:01:00.294Z,100.00
2023-06-30T07:03:27.130Z,100.00
2023-06-30T07:05:56.212Z,100.00
2023-06-30T07:08:22.878Z,100.00
2023-06-30T07:10:51.892Z,100.00
2023-06-30T07:13:20.353Z,100.00
2023-06-30T07:15:48.913Z,100.00
2023-06-30T07:18:18.960Z,100.00
2023-06-30T07:20:46.186Z,100.00
2023-06-30T07:23:12.791Z,100.00
2023-06-30T07:25:39.275Z,100.00
2023-06-30T07:28:05.926Z,100.00
2023-06-30T07:30:32.489Z,100.00
2023-06-30T07:32:59.026Z,100.00
2023-06-30T07:35:25.724Z,100.00
2023-06-30T07:37:52.313Z,100.00
2023-06-30T07:40:21.899Z,100.00
2023-06-30T07:42:50.537Z,100.00
2023-06-30T07:45:18.107Z,100.00
2023-06-30T07:47:46.797Z,100.00
2023-06-30T07:50:15.541Z,100.00
2023-06-30T07:52:46.925Z,100.00
2023-06-30T07:55:14.763Z,100.00
2023-06-30T07:57:41.564Z,100.00
2023-06-30T08:00:08.688Z,100.00
2023-06-30T08:02:40.845Z,100.00
2023-06-30T08:05:07.884Z,100.00
2023-06-30T08:07:48.935Z,100.00
2023-06-30T08:10:16.826Z,100.00
2023-06-30T08:12:43.351Z,100.00
2023-06-30T08:15:10.472Z,100.00
2023-06-30T08:17:51.098Z,100.00
2023-06-30T08:20:23.946Z,100.00
2023-06-30T08:22:50.653Z,100.00
2023-06-30T08:25:17.407Z,100.00
2023-06-30T08:27:44.209Z,100.00
2023-06-30T08:30:11.108Z,100.00
2023-06-30T08:32:37.777Z,100.00
2023-06-30T08:35:04.672Z,100.00
2023-06-30T08:37:31.208Z,100.00
2023-06-30T08:39:58.007Z,100.00
2023-06-30T08:42:29.022Z,100.00
2023-06-30T08:44:58.286Z,100.00
2023-06-30T08:47:26.693Z,100.00
2023-06-30T08:49:57.222Z,100.00
2023-06-30T08:52:23.759Z,100.00
2023-06-30T08:54:50.436Z,100.00
2023-06-30T08:57:17.195Z,100.00
2023-06-30T08:59:44.590Z,100.00
2023-06-30T09:02:14.801Z,100.00
2023-06-30T09:04:42.524Z,100.00
2023-06-30T09:07:10.939Z,100.00
2023-06-30T09:09:43.342Z,100.00
2023-06-30T09:12:11.374Z,100.00
2023-06-30T09:14:40.223Z,100.00
2023-06-30T09:17:07.382Z,100.00
2023-06-30T09:19:35.059Z,100.00
2023-06-30T09:22:51.054Z,100.00
2023-06-30T09:24:50.426Z,100.00
2023-06-30T09:27:18.962Z,100.00
2023-06-30T09:29:55.006Z,100.00
2023-06-30T09:32:32.477Z,100.00
2023-06-30T09:35:07.061Z,100.00
2023-06-30T09:37:41.930Z,100.00
2023-06-30T09:40:13.277Z,100.00
2023-06-30T09:47:27.315Z,100.00
2023-06-30T09:50:14.039Z,100.00
2023-06-30T09:53:02.010Z,100.00
2023-06-30T09:55:52.944Z,100.00
2023-06-30T09:58:40.678Z,100.00
2023-06-30T10:01:27.539Z,100.00
2023-06-30T10:04:15.143Z,100.00
2023-06-30T10:06:41.925Z,100.00
2023-06-30T10:09:09.472Z,100.00
2023-06-30T10:11:36.875Z,100.00
2023-06-30T10:14:04.625Z,100.00
2023-06-30T10:16:31.941Z,100.00
2023-06-30T10:19:01.828Z,100.00
2023-06-30T10:21:28.803Z,100.00
2023-06-30T10:23:56.177Z,100.00
2023-06-30T10:26:24.785Z,100.00
2023-06-30T10:28:51.687Z,100.00
2023-06-30T10:31:52.483Z,100.00
2023-06-30T10:34:19.598Z,100.00
2023-06-30T10:36:47.041Z,100.00
2023-06-30T10:39:14.805Z,100.00
2023-06-30T10:41:50.621Z,100.00
2023-06-30T10:44:21.687Z,100.00
2023-06-30T10:46:57.670Z,100.00
2023-06-30T10:49:34.017Z,100.00
2023-06-30T10:52:06.813Z,100.00
2023-06-30T10:54:47.033Z,100.00
2023-06-30T10:57:24.256Z,100.00
2023-06-30T11:00:11.571Z,100.00
2023-06-30T11:02:39.199Z,100.00
2023-06-30T11:05:26.328Z,100.00
2023-06-30T11:08:08.964Z,100.00
2023-06-30T11:10:37.604Z,100.00
2023-06-30T11:13:10.706Z,100.00
2023-06-30T11:15:43.921Z,100.00
2023-06-30T11:18:14.996Z,99.51
2023-06-30T11:21:01.680Z,96.40
2023-06-30T11:23:32.235Z,94.12
2023-06-30T11:25:59.164Z,88.13
2023-06-30T11:28:29.773Z,90.20
2023-06-30T11:31:00.385Z,94.62
2023-06-30T11:33:27.007Z,93.16
2023-06-30T11:35:54.580Z,92.91
2023-06-30T11:38:21.246Z,91.72
2023-06-30T11:40:49.326Z,91.26
2023-06-30T11:43:15.934Z,92.09
2023-06-30T11:45:42.487Z,92.62
2023-06-30T11:48:09.168Z,87.62
2023-06-30T11:50:36.068Z,86.64
2023-06-30T11:53:02.671Z,84.52
2023-06-30T11:55:29.331Z,83.03
2023-06-30T11:57:56.105Z,82.74
2023-06-30T12:00:24.564Z,82.06
2023-06-30T12:02:58.750Z,88.04
2023-06-30T12:05:27.013Z,89.52
2023-06-30T12:07:58.598Z,87.85
2023-06-30T12:10:37.854Z,90.27
2023-06-30T12:13:07.425Z,91.96
2023-06-30T12:15:34.136Z,87.84
2023-06-30T12:18:05.377Z,83.06
2023-06-30T12:20:37.231Z,83.93
2023-06-30T12:23:05.535Z,84.09
2023-06-30T12:25:37.179Z,78.13
2023-06-30T12:28:05.206Z,77.21
2023-06-30T12:30:32.196Z,70.95
2023-06-30T12:33:00.866Z,68.12
2023-06-30T12:35:30.413Z,68.53
2023-06-30T12:37:57.188Z,70.15
2023-06-30T12:40:25.630Z,72.13
2023-06-30T12:42:58.140Z,71.12
2023-06-30T12:45:24.725Z,66.68
2023-06-30T12:47:51.314Z,62.87
2023-06-30T12:50:17.963Z,63.24
2023-06-30T12:52:44.589Z,63.89
2023-06-30T12:55:11.252Z,68.63
2023-06-30T12:57:38.071Z,65.79
2023-06-30T13:00:11.742Z,63.96
2023-06-30T13:02:39.051Z,66.40
2023-06-30T13:05:07.224Z,66.87
2023-06-30T13:07:35.294Z,60.44
2023-06-30T13:10:05.998Z,60.82
2023-06-30T13:12:32.565Z,60.50
2023-06-30T13:14:59.283Z,58.60
2023-06-30T13:17:26.069Z,60.06
2023-06-30T13:19:53.043Z,57.10
2023-06-30T13:22:20.615Z,59.08
2023-06-30T13:24:48.672Z,55.53
2023-06-30T13:27:15.458Z,56.97
2023-06-30T13:29:52.602Z,58.44
2023-06-30T13:32:19.822Z,56.37
2023-06-30T13:34:48.014Z,57.20
2023-06-30T13:37:14.900Z,56.64
2023-06-30T13:39:41.530Z,57.18
2023-06-30T13:42:09.845Z,57.64
2023-06-30T13:44:37.108Z,59.37
2023-06-30T13:47:04.184Z,60.72
2023-06-30T13:49:30.867Z,60.16
2023-06-30T13:51:58.131Z,58.93
2023-06-30T13:54:25.165Z,58.62
2023-06-30T13:56:53.227Z,57.44
2023-06-30T13:59:19.861Z,59.12
2023-06-30T14:01:46.779Z,58.76
2023-06-30T14:04:14.011Z,57.58
2023-06-30T14:06:41.248Z,58.19
2023-06-30T14:09:11.022Z,57.87
2023-06-30T14:11:41.122Z,58.94
2023-06-30T14:14:07.798Z,57.01
2023-06-30T14:16:36.033Z,53.68
2023-06-30T14:19:04.302Z,54.84
2023-06-30T14:21:32.053Z,53.59
2023-06-30T14:23:59.382Z,54.03
2023-06-30T14:26:26.393Z,50.39
2023-06-30T14:28:53.753Z,48.38
2023-06-30T14:31:20.640Z,48.58
2023-06-30T14:33:47.268Z,47.53
2023-06-30T14:36:14.099Z,48.57
2023-06-30T14:38:40.654Z,49.33
2023-06-30T14:41:07.199Z,50.18
2023-06-30T14:43:33.686Z,49.87
2023-06-30T14:46:00.348Z,47.37
2023-06-30T14:48:26.909Z,43.77
2023-06-30T14:50:53.383Z,43.38
2023-06-30T14:53:20.088Z,42.12
2023-06-30T14:55:47.117Z,40.57
2023-06-30T14:58:13.932Z,39.02
2023-06-30T15:00:40.980Z,38.16
2023-06-30T15:03:07.533Z,38.02
2023-06-30T15:05:34.221Z,36.94
2023-06-30T15:08:01.292Z,36.56
2023-06-30T15:10:27.839Z,38.15
2023-06-30T15:12:54.410Z,36.21
2023-06-30T15:15:21.214Z,35.33
2023-06-30T15:17:47.852Z,35.14
2023-06-30T15:20:14.424Z,34.63
2023-06-30T15:22:42.348Z,34.62
2023-06-30T15:25:25.714Z,34.13
2023-06-30T15:27:52.714Z,33.48
2023-06-30T15:30:20.384Z,32.33
2023-06-30T15:32:47.327Z,31.88
2023-06-30T15:35:13.854Z,32.50
2023-06-30T15:37:41.651Z,32.40
2023-06-30T15:40:08.522Z,32.13
2023-06-30T15:42:35.230Z,31.38
2023-06-30T15:45:03.039Z,30.80
2023-06-30T15:47:29.639Z,34.00
2023-06-30T15:49:56.153Z,33.16
2023-06-30T15:52:22.666Z,34.04
2023-06-30T15:55:07.581Z,32.38
2023-06-30T15:57:34.457Z,32.79
2023-06-30T16:00:02.347Z,33.70
2023-06-30T16:02:39.150Z,33.57
2023-06-30T16:05:09.954Z,33.92
2023-06-30T16:07:36.812Z,33.46
2023-06-30T16:10:05.548Z,33.24
2023-06-30T16:12:32.294Z,33.96
2023-06-30T16:14:58.961Z,34.49
2023-06-30T16:17:25.649Z,34.10
2023-06-30T16:19:52.195Z,34.58
2023-06-30T16:22:18.744Z,35.04
2023-06-30T16:24:46.020Z,34.49
2023-06-30T16:27:12.883Z,32.74
2023-06-30T16:29:39.552Z,31.96
2023-06-30T16:32:07.351Z,31.71
2023-06-30T16:34:34.145Z,33.40
2023-06-30T16:37:00.844Z,33.41
2023-06-30T16:39:27.523Z,33.35
2023-06-30T16:41:54.001Z,33.31
2023-06-30T16:44:20.544Z,35.23
2023-06-30T16:46:47.180Z,35.48
2023-06-30T16:49:14.056Z,36.33
2023-06-30T16:51:42.571Z,37.13
2023-06-30T16:54:09.476Z,38.08
2023-06-30T16:56:36.069Z,37.74
2023-06-30T16:59:02.959Z,38.78
2023-06-30T17:01:29.646Z,38.39
2023-06-30T17:03:56.320Z,39.09
2023-06-30T17:06:23.656Z,40.17
2023-06-30T17:08:50.141Z,40.03
2023-06-30T17:11:16.710Z,40.00
2023-06-30T17:13:43.417Z,39.52
2023-06-30T17:16:09.957Z,39.80
2023-06-30T17:18:36.518Z,39.99
2023-06-30T17:21:03.163Z,40.15
2023-06-30T17:23:29.947Z,39.88
2023-06-30T17:25:56.646Z,40.19
2023-06-30T17:28:23.093Z,41.16
2023-06-30T17:30:49.700Z,40.77
2023-06-30T17:33:16.275Z,41.36
2023-06-30T17:35:43.172Z,40.94
2023-06-30T17:38:09.974Z,41.66
2023-06-30T17:40:36.519Z,41.84
2023-06-30T17:43:03.250Z,41.46
2023-06-30T17:45:29.712Z,42.39
2023-06-30T17:47:56.193Z,42.01
2023-06-30T17:50:26.070Z,42.75
2023-06-30T17:52:52.587Z,43.43
2023-06-30T17:55:19.498Z,42.69
2023-06-30T17:57:46.065Z,42.60
2023-06-30T18:00:13.189Z,42.21
2023-06-30T18:02:39.699Z,43.73
2023-06-30T18:05:06.710Z,42.64
2023-06-30T18:07:33.217Z,42.60
2023-06-30T18:09:59.935Z,43.25
2023-06-30T18:12:26.386Z,43.02
2023-06-30T18:14:52.916Z,43.04
2023-06-30T18:17:19.550Z,43.33
2023-06-30T18:19:46.052Z,44.23
2023-06-30T18:22:14.087Z,44.04
2023-06-30T18:24:40.877Z,44.79
2023-06-30T18:27:07.427Z,43.88
2023-06-30T18:29:34.058Z,43.77
2023-06-30T18:32:01.069Z,44.26
2023-06-30T18:34:27.883Z,44.19
2023-06-30T18:36:54.411Z,44.18
2023-06-30T18:39:21.145Z,44.24
2023-06-30T18:41:47.767Z,43.94
2023-06-30T18:44:14.292Z,44.40
2023-06-30T18:46:41.066Z,44.25
2023-06-30T18:49:10.816Z,44.58
2023-06-30T18:51:39.810Z,45.13
2023-06-30T18:54:06.364Z,44.99
2023-06-30T18:56:32.898Z,45.43
2023-06-30T18:59:01.254Z,45.32
2023-06-30T19:01:28.746Z,46.85
2023-06-30T19:03:55.723Z,45.79
2023-06-30T19:06:24.733Z,46.04
2023-06-30T19:08:52.941Z,46.70
2023-06-30T19:11:20.040Z,46.91
2023-06-30T19:13:46.622Z,47.23
2023-06-30T19:16:13.265Z,47.25
2023-06-30T19:18:40.188Z,47.62
2023-06-30T19:21:10.334Z,48.11
2023-06-30T19:23:38.535Z,48.44
2023-06-30T19:26:05.307Z,48.59
2023-06-30T19:28:32.008Z,48.48
2023-06-30T19:30:58.889Z,48.91
2023-06-30T19:33:29.226Z,49.07
2023-06-30T19:35:56.112Z,49.42
2023-06-30T19:38:22.713Z,49.48
2023-06-30T19:40:49.359Z,49.87
2023-06-30T19:43:16.162Z,49.73
2023-06-30T19:45:43.382Z,49.38
2023-06-30T19:48:10.110Z,49.91
2023-06-30T19:50:37.388Z,49.57
2023-06-30T19:53:04.336Z,50.01
2023-06-30T19:55:33.519Z,50.26
2023-06-30T19:58:00.132Z,50.07
2023-06-30T20:00:26.789Z,49.90
2023-06-30T20:02:55.225Z,49.80
2023-06-30T20:05:21.747Z,50.04
2023-06-30T20:07:48.403Z,50.18
2023-06-30T20:10:14.989Z,50.87
2023-06-30T20:12:41.567Z,51.81
2023-06-30T20:15:08.784Z,51.51
2023-06-30T20:17:35.825Z,52.13
2023-06-30T20:20:02.526Z,52.26
2023-06-30T20:22:29.995Z,52.28
2023-06-30T20:24:58.133Z,52.87
2023-06-30T20:27:24.709Z,53.07
2023-06-30T20:29:51.871Z,52.90
2023-06-30T20:32:18.857Z,53.46
2023-06-30T20:34:45.496Z,55.56
2023-06-30T20:37:12.150Z,56.77
2023-06-30T20:39:40.053Z,57.27
2023-06-30T20:42:07.377Z,58.14
2023-06-30T20:44:34.664Z,58.37
2023-06-30T20:47:01.297Z,58.27
2023-06-30T20:49:27.909Z,59.11
2023-06-30T20:51:55.431Z,59.50
2023-06-30T20:54:24.298Z,58.78
2023-06-30T20:56:51.973Z,57.10
2023-06-30T20:59:18.790Z,56.60
2023-06-30T21:01:45.356Z,56.33
2023-06-30T21:04:12.207Z,55.82
2023-06-30T21:06:39.149Z,56.13
2023-06-30T21:09:06.300Z,57.73
2023-06-30T21:11:33.514Z,59.58
2023-06-30T21:14:00.663Z,60.76
2023-06-30T21:16:27.452Z,62.03
2023-06-30T21:18:54.131Z,61.77
2023-06-30T21:21:20.688Z,61.28
2023-06-30T21:23:47.285Z,62.00
2023-06-30T21:26:13.974Z,62.81
2023-06-30T21:28:40.517Z,62.91
2023-06-30T21:31:07.072Z,63.04
2023-06-30T21:33:33.582Z,66.12
2023-06-30T21:36:01.812Z,64.58
2023-06-30T21:38:28.445Z,67.76
2023-06-30T21:40:55.010Z,69.36
2023-06-30T21:43:21.581Z,69.93
2023-06-30T21:45:48.651Z,70.70
2023-06-30T21:48:15.231Z,71.07
2023-06-30T21:50:41.751Z,71.57
2023-06-30T21:53:08.341Z,71.91
2023-06-30T21:55:35.236Z,72.82
2023-06-30T21:58:06.469Z,73.83
2023-06-30T22:00:35.450Z,73.66
2023-06-30T22:03:02.080Z,75.82
2023-06-30T22:05:30.143Z,79.96
2023-06-30T22:07:56.929Z,80.54
2023-06-30T22:10:23.437Z,81.00
2023-06-30T22:12:50.009Z,82.48
2023-06-30T22:15:16.803Z,83.53
2023-06-30T22:17:43.478Z,83.57
2023-06-30T22:20:10.771Z,85.12
2023-06-30T22:22:37.345Z,88.52
2023-06-30T22:25:04.284Z,88.48
2023-06-30T22:27:31.062Z,88.31
2023-06-30T22:29:57.637Z,87.61
2023-06-30T22:32:25.476Z,89.39
2023-06-30T22:34:51.982Z,90.85
2023-06-30T22:37:18.586Z,90.15
2023-06-30T22:39:45.163Z,90.51
2023-06-30T22:42:11.602Z,91.03
2023-06-30T22:44:38.191Z,91.91
2023-06-30T22:47:05.088Z,93.98
2023-06-30T22:49:31.763Z,97.28
2023-06-30T22:51:58.370Z,96.49
2023-06-30T22:54:26.147Z,97.88
2023-06-30T22:56:52.656Z,97.38
2023-06-30T22:59:19.599Z,96.34
2023-06-30T23:01:47.095Z,98.98
2023-06-30T23:04:13.601Z,99.84
2023-06-30T23:06:40.162Z,100.00
2023-06-30T23:09:06.916Z,100.00
2023-06-30T23:11:33.505Z,100.00
2023-06-30T23:14:00.168Z,100.00
2023-06-30T23:16:26.637Z,100.00
2023-06-30T23:18:53.227Z,100.00
2023-06-30T23:21:20.603Z,100.00
2023-06-30T23:23:47.176Z,100.00
2023-06-30T23:26:15.320Z,100.00
2023-06-30T23:28:50.104Z,100.00
2023-06-30T23:31:18.191Z,100.00
2023-06-30T23:33:44.821Z,100.00
2023-06-30T23:36:11.476Z,100.00
2023-06-30T23:38:39.518Z,100.00
2023-06-30T23:41:06.234Z,100.00
2023-06-30T23:43:32.878Z,100.00
2023-06-30T23:45:59.323Z,100.00
2023-06-30T23:48:25.905Z,100.00
2023-06-30T23:50:52.459Z,100.00
2023-06-30T23:53:19.106Z,100.00
2023-06-30T23:55:45.637Z,100.00
2023-06-30T23:58:12.264Z,100.00
